.
WxDataArchive / Data Records for 2012-02-25
2012-02-24 February 2012 2012-02-26

Data Records for Saturday, 25 February 2012

Time	Temp	Chill	HIndex	Humid	Dewpt	 Wind 	HiWind	WindDir	Rain 	Barom 
-----	----	-----	------	-----	-----	------	------	-------	-----	----- 
00:00	28.7	28.7	28.7	72	20.8	3	7	270	0.00	29.878 
00:05	28.7	24.3	28.7	72	20.8	4	9	270	0.00	29.878 
00:10	28.7	28.7	28.7	72	20.8	3	6	248	0.00	29.878 
00:15	28.5	24.0	28.5	72	20.6	4	9	270	0.00	29.879 
00:20	28.4	23.9	28.4	72	20.5	4	8	270	0.00	29.879 
00:25	28.4	23.9	28.4	72	20.5	4	8	270	0.00	29.879 
00:30	28.2	23.7	28.2	72	20.4	4	9	270	0.00	29.884 
00:35	28.2	22.6	28.2	71	20.0	5	11	270	0.00	29.884 
00:40	28.1	23.6	28.1	72	20.3	4	9	270	0.00	29.884 
00:45	28.1	28.1	28.1	72	20.3	3	6	270	0.00	29.883 
00:50	28.1	28.1	28.1	73	20.6	3	7	248	0.00	29.883 
00:55	27.9	27.9	27.9	73	20.4	3	6	270	0.00	29.883 
01:00	27.9	27.9	27.9	73	20.4	3	5	248	0.00	29.886 
01:05	27.9	27.9	27.9	73	20.4	3	5	248	0.00	29.886 
01:10	27.9	27.9	27.9	73	20.4	3	7	270	0.00	29.886 
01:15	27.9	23.3	27.9	72	20.1	4	7	270	0.00	29.885 
01:20	27.9	27.9	27.9	73	20.4	3	7	270	0.00	29.885 
01:25	27.9	23.3	27.9	72	20.1	4	7	270	0.00	29.885 
01:30	27.8	23.2	27.8	72	20.0	4	6	248	0.00	29.887 
01:35	27.8	22.1	27.8	71	19.6	5	13	270	0.00	29.887 
01:40	27.8	23.2	27.8	71	19.6	4	10	270	0.00	29.887 
01:45	27.8	23.2	27.8	71	19.6	4	9	270	0.00	29.886 
01:50	27.6	23.0	27.6	71	19.4	4	8	270	0.00	29.886 
01:55	27.6	23.0	27.6	70	19.1	4	7	270	0.00	29.886 
02:00	27.5	22.9	27.5	70	19.0	4	7	248	0.00	29.894 
02:05	27.3	21.6	27.3	69	18.5	5	7	270	0.00	29.894 
02:10	27.2	22.5	27.2	69	18.4	4	7	270	0.00	29.894 
02:15	27.2	27.2	27.2	69	18.4	3	6	270	0.00	29.895 
02:20	27.2	27.2	27.2	70	18.7	3	5	270	0.00	29.895 
02:25	27.0	22.3	27.0	69	18.2	4	10	270	0.00	29.895 
02:30	27.0	22.3	27.0	69	18.2	4	6	270	0.00	29.896 
02:35	26.9	26.9	26.9	69	18.1	3	7	270	0.00	29.896 
02:40	26.7	22.0	26.7	70	18.3	4	7	248	0.00	29.896 
02:45	26.7	26.7	26.7	70	18.3	3	7	270	0.00	29.899 
02:50	26.6	26.6	26.6	70	18.2	3	7	270	0.00	29.899 
02:55	26.4	21.6	26.4	70	18.0	4	6	270	0.00	29.899 
03:00	26.4	21.6	26.4	69	17.6	4	7	270	0.00	29.900 
03:05	26.4	21.6	26.4	69	17.6	4	9	270	0.00	29.900 
03:10	26.3	26.3	26.3	70	17.9	2	5	248	0.00	29.900 
03:15	26.3	26.3	26.3	70	17.9	3	5	270	0.00	29.906 
03:20	26.3	26.3	26.3	71	18.2	3	5	248	0.00	29.906 
03:25	26.4	21.6	26.4	70	18.0	4	10	270	0.00	29.906 
03:30	26.4	26.4	26.4	70	18.0	3	5	248	0.00	29.914 
03:35	26.4	21.6	26.4	70	18.0	4	16	270	0.00	29.914 
03:40	26.4	21.6	26.4	69	17.6	4	7	270	0.00	29.914 
03:45	26.6	21.8	26.6	70	18.2	4	7	270	0.00	29.915 
03:50	26.6	26.6	26.6	70	18.2	3	11	248	0.00	29.915 
03:55	26.6	26.6	26.6	70	18.2	3	8	248	0.00	29.915 
04:00	26.6	21.8	26.6	69	17.8	4	7	270	0.00	29.919 
04:05	26.4	21.6	26.4	69	17.6	4	6	248	0.00	29.919 
04:10	26.4	26.4	26.4	69	17.6	3	9	225	0.00	29.919 
04:15	26.4	20.5	26.4	69	17.6	5	9	270	0.00	29.928 
04:20	26.3	21.5	26.3	69	17.5	4	6	270	0.00	29.928 
04:25	26.3	21.5	26.3	69	17.5	4	6	270	0.00	29.928 
04:30	26.3	26.3	26.3	70	17.9	2	4	270	0.00	29.933 
04:35	26.1	21.3	26.1	70	17.7	4	6	270	0.00	29.933 
04:40	26.1	21.3	26.1	70	17.7	4	7	270	0.00	29.933 
04:45	26.0	26.0	26.0	70	17.6	3	5	270	0.00	29.936 
04:50	26.0	26.0	26.0	71	17.9	2	4	270	0.00	29.936 
04:55	26.0	26.0	26.0	71	17.9	3	6	270	0.00	29.936 
05:00	26.0	21.1	26.0	70	17.6	4	9	270	0.00	29.944 
05:05	26.0	21.1	26.0	70	17.6	4	7	270	0.00	29.944 
05:10	26.0	21.1	26.0	69	17.2	4	7	248	0.00	29.944 
05:15	26.0	26.0	26.0	69	17.2	3	6	270	0.00	29.949 
05:20	26.0	26.0	26.0	70	17.6	3	6	248	0.00	29.949 
05:25	26.0	21.1	26.0	70	17.6	4	8	270	0.00	29.949 
05:30	25.8	20.9	25.8	69	17.1	4	7	248	0.00	29.961 
05:35	25.8	20.9	25.8	70	17.4	4	7	248	0.00	29.961 
05:40	25.8	20.9	25.8	70	17.4	4	9	270	0.00	29.961 
05:45	25.8	20.9	25.8	70	17.4	4	9	270	0.00	29.966 
05:50	25.8	25.8	25.8	70	17.4	3	7	270	0.00	29.966 
05:55	25.8	20.9	25.8	70	17.4	4	7	270	0.00	29.966 
06:00	25.8	25.8	25.8	71	17.7	2	5	270	0.00	29.970 
06:05	26.0	26.0	26.0	70	17.6	3	6	270	0.00	29.970 
06:10	26.0	21.1	26.0	70	17.6	4	7	270	0.00	29.970 
06:15	26.0	26.0	26.0	70	17.6	3	6	248	0.00	29.976 
06:20	26.0	26.0	26.0	69	17.2	3	7	270	0.00	29.976 
06:25	26.0	21.1	26.0	69	17.2	4	11	248	0.00	29.976 
06:30	26.0	26.0	26.0	69	17.2	3	6	248	0.00	29.978 
06:35	26.0	26.0	26.0	69	17.2	3	6	270	0.00	29.978 
06:40	26.0	26.0	26.0	69	17.2	3	6	270	0.00	29.978 
06:45	26.0	26.0	26.0	70	17.6	3	5	248	0.00	29.984 
06:50	26.0	26.0	26.0	70	17.6	2	5	248	0.00	29.984 
06:55	25.8	20.9	25.8	71	17.7	4	9	270	0.00	29.984 
07:00	25.8	20.9	25.8	71	17.7	4	6	270	0.00	29.991 
07:05	25.7	25.7	25.7	71	17.6	3	7	270	0.00	29.991 
07:10	25.7	25.7	25.7	72	17.9	2	4	248	0.00	29.991 
07:15	25.7	20.8	25.7	72	17.9	4	11	248	0.00	29.996 
07:20	25.6	25.6	25.6	72	17.8	3	7	270	0.00	29.996 
07:25	25.6	25.6	25.6	73	18.2	3	6	270	0.00	29.996 
07:30	25.4	25.4	25.4	73	18.0	3	6	248	0.00	30.000 
07:35	25.4	25.4	25.4	73	18.0	3	6	270	0.00	30.000 
07:40	25.4	25.4	25.4	73	18.0	3	7	248	0.00	30.000 
07:45	25.4	25.4	25.4	74	18.3	3	5	248	0.00	30.006 
07:50	25.4	25.4	25.4	74	18.3	3	6	270	0.00	30.006 
07:55	25.4	25.4	25.4	74	18.3	3	5	248	0.00	30.006 
08:00	25.4	25.4	25.4	74	18.3	2	4	248	0.00	30.014 
08:05	25.4	25.4	25.4	74	18.3	3	9	248	0.00	30.014 
08:10	25.6	25.6	25.6	74	18.5	3	6	270	0.00	30.014 
08:15	25.6	25.6	25.6	74	18.5	3	6	248	0.00	30.026 
08:20	25.4	25.4	25.4	74	18.3	3	7	270	0.00	30.026 
08:25	25.4	20.5	25.4	74	18.3	4	7	270	0.00	30.026 
08:30	25.4	25.4	25.4	74	18.3	3	7	248	0.00	30.032 
08:35	25.6	25.6	25.6	75	18.8	2	6	248	0.00	30.032 
08:40	25.6	25.6	25.6	75	18.8	2	6	248	0.00	30.032 
08:45	25.6	25.6	25.6	75	18.8	3	6	248	0.00	30.044 
08:50	25.6	25.6	25.6	75	18.8	3	6	248	0.00	30.044 
08:55	25.7	25.7	25.7	76	19.2	3	6	248	0.00	30.044 
09:00	25.7	25.7	25.7	75	18.9	2	5	248	0.00	30.047 
09:05	25.8	25.8	25.8	75	19.0	3	9	248	0.00	30.047 
09:10	25.8	25.8	25.8	75	19.0	3	7	270	0.00	30.047 
09:15	25.8	20.9	25.8	74	18.7	4	9	270	0.00	30.059 
09:20	26.0	26.0	26.0	74	18.9	3	9	270	0.00	30.059 
09:25	26.1	26.1	26.1	74	19.0	3	9	270	0.00	30.059 
09:30	26.1	21.3	26.1	74	19.0	4	6	270	0.00	30.062 
09:35	26.3	21.5	26.3	73	18.8	4	9	270	0.00	30.062 
09:40	26.4	21.6	26.4	73	18.9	4	9	270	0.00	30.062 
09:45	26.6	21.8	26.6	73	19.1	4	7	248	0.00	30.066 
09:50	26.9	22.2	26.9	72	19.1	4	9	270	0.00	30.066 
09:55	27.2	27.2	27.2	72	19.4	3	6	270	0.00	30.066 
10:00	27.0	21.2	27.0	71	18.9	5	8	270	0.00	30.077 
10:05	27.0	22.3	27.0	70	18.5	4	9	270	0.00	30.077 
10:10	27.3	21.6	27.3	69	18.5	5	10	270	0.00	30.077 
10:15	27.6	27.6	27.6	70	19.1	3	6	270	0.00	30.078 
10:20	27.6	23.0	27.6	69	18.8	4	10	248	0.00	30.078 
10:25	27.8	23.2	27.8	69	19.0	4	6	270	0.00	30.078 
10:30	27.9	23.3	27.9	68	18.7	4	7	270	0.00	30.085 
10:35	28.2	23.7	28.2	68	19.0	4	7	270	0.00	30.085 
10:40	28.4	23.9	28.4	65	18.2	4	8	270	0.00	30.085 
10:45	28.2	23.7	28.2	66	18.3	4	10	270	0.00	30.095 
10:50	28.2	23.7	28.2	65	18.0	4	9	270	0.00	30.095 
10:55	28.1	23.6	28.1	65	17.9	4	10	270	0.00	30.095 
11:00	28.1	23.6	28.1	65	17.9	4	8	270	0.00	30.104 
11:05	28.4	23.9	28.4	65	18.2	4	7	270	0.00	30.104 
11:10	28.7	24.3	28.7	65	18.4	4	9	270	0.00	30.104 
11:15	29.0	24.6	29.0	65	18.7	4	9	270	0.00	30.109 
11:20	28.8	23.3	28.8	65	18.5	5	10	270	0.00	30.109 
11:25	29.0	23.6	29.0	65	18.7	5	11	270	0.00	30.109 
11:30	29.5	25.2	29.5	65	19.2	4	7	270	0.00	30.116 
11:35	30.1	25.9	30.1	64	19.4	4	7	270	0.00	30.116 
11:40	30.6	26.5	30.6	64	19.9	4	7	270	0.00	30.116 
11:45	30.7	26.6	30.7	63	19.6	4	7	270	0.00	30.122 
11:50	30.4	26.2	30.4	62	19.0	4	7	270	0.00	30.122 
11:55	30.6	30.6	30.6	63	19.5	3	6	292	0.00	30.122 
12:00	30.7	26.6	30.7	62	19.2	4	7	270	0.00	30.134 
12:05	30.7	26.6	30.7	60	18.5	4	8	270	0.00	30.134 
12:10	31.2	31.2	31.2	62	19.7	3	9	270	0.00	30.134 
12:15	30.9	30.9	30.9	61	19.1	3	6	270	0.00	30.141 
12:20	30.4	30.4	30.4	61	18.6	3	7	270	0.00	30.141 
12:25	30.3	30.3	30.3	62	18.9	3	7	270	0.00	30.141 
12:30	30.4	26.2	30.4	61	18.6	4	7	270	0.00	30.149 
12:35	30.3	26.1	30.3	60	18.1	4	10	270	0.00	30.149 
12:40	30.3	26.1	30.3	61	18.5	4	7	270	0.00	30.149 
12:45	30.3	26.1	30.3	62	18.9	4	6	270	0.00	30.156 
12:50	30.6	26.5	30.6	61	18.8	4	7	270	0.00	30.156 
12:55	31.0	31.0	31.0	61	19.1	3	7	270	0.00	30.156 
13:00	31.6	31.6	31.6	59	18.9	3	6	270	0.00	30.156 
13:05	31.6	31.6	31.6	60	19.3	3	8	315	0.00	30.156 
13:10	31.8	27.8	31.8	58	18.7	4	7	270	0.00	30.156 
13:15	31.8	27.8	31.8	58	18.7	4	7	270	0.00	30.166 
13:20	31.0	26.9	31.0	58	18.0	4	9	270	0.00	30.166 
13:25	30.3	26.1	30.3	58	17.3	4	7	270	0.00	30.166 
13:30	31.3	27.3	31.3	59	18.7	4	8	270	0.00	30.172 
13:35	31.5	27.5	31.5	58	18.4	4	7	270	0.00	30.172 
13:40	31.2	27.2	31.2	58	18.2	4	9	270	0.00	30.172 
13:45	31.0	26.9	31.0	58	18.0	4	7	270	0.00	30.180 
13:50	30.9	26.8	30.9	58	17.9	4	9	270	0.00	30.180 
13:55	30.7	30.7	30.7	60	18.5	3	7	270	0.00	30.180 
14:00	30.3	26.1	30.3	58	17.3	4	9	270	0.00	30.182 
14:05	30.3	30.3	30.3	60	18.1	3	9	270	0.00	30.182 
14:10	31.0	31.0	31.0	60	18.8	3	7	248	0.00	30.182 
14:15	31.5	31.5	31.5	59	18.8	3	7	270	0.00	30.192 
14:20	31.5	27.5	31.5	57	18.0	4	7	270	0.00	30.192 
14:25	31.8	31.8	31.8	58	18.7	3	6	270	0.00	30.192 
14:30	31.6	31.6	31.6	59	18.9	3	5	248	0.00	30.197 
14:35	31.9	28.0	31.9	58	18.8	4	9	270	0.00	30.197 
14:40	31.3	27.3	31.3	57	17.9	4	9	270	0.00	30.197 
14:45	31.0	31.0	31.0	58	18.0	3	5	270	0.00	30.208 
14:50	31.2	31.2	31.2	59	18.6	3	5	270	0.00	30.208 
14:55	31.6	31.6	31.6	59	18.9	3	5	248	0.00	30.208 
15:00	31.0	31.0	31.0	58	18.0	3	9	270	0.00	30.221 
15:05	30.6	30.6	30.6	59	18.0	3	6	270	0.00	30.221 
15:10	30.6	26.5	30.6	58	17.6	4	7	270	0.00	30.221 
15:15	30.9	26.8	30.9	58	17.9	4	6	270	0.00	30.225 
15:20	30.7	26.6	30.7	59	18.1	4	9	270	0.00	30.225 
15:25	31.2	27.2	31.2	57	17.8	4	8	270	0.00	30.225 
15:30	31.2	27.2	31.2	58	18.2	4	6	270	0.00	30.228 
15:35	31.8	31.8	31.8	59	19.1	2	4	270	0.00	30.228 
15:40	32.1	32.1	32.1	57	18.6	3	6	270	0.00	30.228 
15:45	31.9	31.9	31.9	58	18.8	3	5	270	0.00	30.228 
15:50	31.8	31.8	31.8	56	17.9	3	6	338	0.00	30.228 
15:55	31.3	31.3	31.3	56	17.4	3	5	270	0.00	30.228 
16:00	30.6	26.5	30.6	56	16.8	4	6	270	0.00	30.236 
16:05	30.0	30.0	30.0	57	16.6	3	6	270	0.00	30.236 
16:10	29.8	29.8	29.8	58	16.8	2	7	292	0.00	30.236 
16:15	29.7	29.7	29.7	58	16.8	3	6	270	0.00	30.247 
16:20	29.4	29.4	29.4	59	16.9	3	5	270	0.00	30.247 
16:25	29.4	29.4	29.4	60	17.3	2	4	248	0.00	30.247 
16:30	29.5	29.5	29.5	60	17.3	2	5	270	0.00	30.254 
16:35	29.7	29.7	29.7	60	17.5	1	3	315	0.00	30.254 
16:40	29.8	29.8	29.8	59	17.2	2	6	270	0.00	30.254 
16:45	29.5	29.5	29.5	59	17.0	2	5	338	0.00	30.262 
16:50	29.4	29.4	29.4	59	16.9	2	7	315	0.00	30.262 
16:55	29.3	29.3	29.3	59	16.8	1	4	338	0.00	30.262 
17:00	29.3	29.3	29.3	59	16.8	2	6	292	0.00	30.258 
17:05	29.3	29.3	29.3	60	17.2	2	5	292	0.00	30.258 
17:10	29.4	29.4	29.4	60	17.3	1	4	338	0.00	30.258 
17:15	29.4	29.4	29.4	60	17.3	1	5	315	0.00	30.256 
17:20	29.4	29.4	29.4	60	17.3	3	5	270	0.00	30.256 
17:25	29.4	29.4	29.4	60	17.3	1	4	270	0.00	30.256 
17:30	29.4	29.4	29.4	59	16.9	2	5	338	0.00	30.254 
17:35	29.3	29.3	29.3	60	17.2	1	3	270	0.00	30.254 
17:40	29.3	29.3	29.3	60	17.2	1	3	270	0.00	30.254 
17:45	29.4	29.4	29.4	60	17.3	1	3	270	0.00	30.260 
17:50	29.4	29.4	29.4	59	16.9	1	4	292	0.00	30.260 
17:55	29.4	29.4	29.4	59	16.9	1	3	292	0.00	30.260 
18:00	29.3	29.3	29.3	59	16.8	2	4	270	0.00	30.270 
18:05	29.1	29.1	29.1	58	16.2	2	5	270	0.00	30.270 
18:10	29.1	29.1	29.1	59	16.6	2	4	270	0.00	30.270 
18:15	29.1	29.1	29.1	59	16.6	1	2	270	0.00	30.275 
18:20	29.0	29.0	29.0	59	16.5	1	3	270	0.00	30.275 
18:25	29.0	29.0	29.0	60	16.9	0	2	270	0.00	30.275 
18:30	28.8	28.8	28.8	60	16.7	0	2	270	0.00	30.278 
18:35	28.7	28.7	28.7	60	16.6	0	1	270	0.00	30.278 
18:40	28.5	28.5	28.5	60	16.4	0	2	270	0.00	30.278 
18:45	28.4	28.4	28.4	61	16.7	0	0	---	0.00	30.282 
18:50	28.2	28.2	28.2	61	16.5	0	1	270	0.00	30.282 
18:55	28.1	28.1	28.1	62	16.8	0	0	---	0.00	30.282 
19:00	27.9	27.9	27.9	62	16.6	0	0	---	0.00	30.286 
19:05	27.8	27.8	27.8	63	16.9	0	0	---	0.00	30.286 
19:10	27.5	27.5	27.5	63	16.6	0	0	---	0.00	30.286 
19:15	27.3	27.3	27.3	64	16.8	0	0	---	0.00	30.302 
19:20	27.0	27.0	27.0	65	16.8	0	0	---	0.00	30.302 
19:25	26.9	26.9	26.9	65	16.7	0	0	---	0.00	30.302 
19:30	26.6	26.6	26.6	65	16.4	0	0	---	0.00	30.305 
19:35	26.3	26.3	26.3	66	16.5	0	0	---	0.00	30.305 
19:40	26.0	26.0	26.0	67	16.6	0	0	---	0.00	30.305 
19:45	25.8	25.8	25.8	68	16.7	0	0	---	0.00	30.318 
19:50	25.6	25.6	25.6	69	16.9	0	0	---	0.00	30.318 
19:55	25.4	25.4	25.4	70	17.0	0	0	---	0.00	30.318 
20:00	25.3	25.3	25.3	71	17.2	0	0	---	0.00	30.322 
20:05	25.1	25.1	25.1	71	17.0	0	0	---	0.00	30.322 
20:10	25.0	25.0	25.0	72	17.3	0	0	---	0.00	30.322 
20:15	24.7	24.7	24.7	72	17.0	0	0	---	0.00	30.332 
20:20	24.5	24.5	24.5	73	17.1	0	0	---	0.00	30.332 
20:25	24.4	24.4	24.4	74	17.3	0	0	---	0.00	30.332 
20:30	24.2	24.2	24.2	74	17.1	0	0	---	0.00	30.338 
20:35	24.1	24.1	24.1	75	17.3	0	0	---	0.00	30.338 
20:40	24.1	24.1	24.1	75	17.3	0	0	---	0.00	30.338 
20:45	23.9	23.9	23.9	76	17.5	0	0	---	0.00	30.348 
20:50	23.9	23.9	23.9	77	17.8	0	0	---	0.00	30.348 
20:55	23.9	23.9	23.9	77	17.8	0	0	---	0.00	30.348 
21:00	23.9	23.9	23.9	77	17.8	0	0	---	0.00	30.351 
21:05	23.9	23.9	23.9	78	18.1	0	0	---	0.00	30.351 
21:10	23.9	23.9	23.9	78	18.1	0	0	---	0.00	30.351 
21:15	24.1	24.1	24.1	79	18.5	0	0	---	0.00	30.352 
21:20	24.2	24.2	24.2	79	18.6	0	0	---	0.00	30.352 
21:25	24.5	24.5	24.5	79	18.9	0	1	270	0.00	30.352 
21:30	25.0	25.0	25.0	79	19.4	0	1	270	0.00	30.356 
21:35	25.6	25.6	25.6	77	19.4	0	1	270	0.00	30.356 
21:40	26.0	26.0	26.0	75	19.2	0	2	270	0.00	30.356 
21:45	26.6	26.6	26.6	72	18.8	1	3	270	0.00	30.365 
21:50	27.0	27.0	27.0	69	18.2	1	4	270	0.00	30.365 
21:55	27.2	27.2	27.2	68	18.1	1	3	270	0.00	30.365 
22:00	27.5	27.5	27.5	67	18.0	1	4	270	0.00	30.365 
22:05	27.5	27.5	27.5	66	17.7	1	4	270	0.00	30.365 
22:10	27.6	27.6	27.6	65	17.4	1	4	248	0.00	30.365 
22:15	27.6	27.6	27.6	65	17.4	1	4	248	0.00	30.367 
22:20	27.6	27.6	27.6	65	17.4	1	3	225	0.00	30.367 
22:25	27.6	27.6	27.6	65	17.4	1	3	248	0.00	30.367 
22:30	27.6	27.6	27.6	64	17.0	2	5	248	0.00	30.377 
22:35	27.5	27.5	27.5	65	17.3	2	5	248	0.00	30.377 
22:40	27.3	27.3	27.3	65	17.1	1	4	248	0.00	30.377 
22:45	27.2	27.2	27.2	65	17.0	0	2	248	0.00	30.375 
22:50	27.0	27.0	27.0	66	17.2	0	2	248	0.00	30.375 
22:55	26.7	26.7	26.7	67	17.2	1	4	248	0.00	30.375 
23:00	26.6	26.6	26.6	67	17.1	1	3	248	0.00	30.376 
23:05	26.4	26.4	26.4	67	17.0	1	3	248	0.00	30.376 
23:10	26.3	26.3	26.3	68	17.2	1	3	248	0.00	30.376 
23:15	26.1	26.1	26.1	68	17.0	0	1	248	0.00	30.377 
23:20	26.0	26.0	26.0	68	16.9	0	1	248	0.00	30.377 
23:25	25.8	25.8	25.8	69	17.1	0	2	248	0.00	30.377 
23:30	25.8	25.8	25.8	69	17.1	1	4	248	0.00	30.378 
23:35	25.7	25.7	25.7	69	17.0	0	2	248	0.00	30.378 
23:40	25.6	25.6	25.6	69	16.9	0	1	248	0.00	30.378 
23:45	25.4	25.4	25.4	70	17.0	0	1	248	0.00	30.375 
23:50	25.3	25.3	25.3	70	16.9	0	0	---	0.00	30.375 
23:55	25.1	25.1	25.1	70	16.7	0	1	248	0.00	30.375 

CoCoRaHS
IN-AL-39
A2 Web Hosting
Creative Commons License
GoDaddy
search engine by freefind advanced

loaded 2018-11-20 14:57:11 • last modified 2010-11-18 10:43:29
Privacy PolicyDisclaimer
• wx.awcolley.com is powered by PmWiki v.2002016 •
• all content (unless otherwise noted) © 2018 A W Colley